Time;durP1;ratioP1;P1;durP2;ratioP2;P2;SDS_P1;SDS_P2;PMS_P1;PMS_P2;Temp;Humidity;BMP_temperature;BMP_pressure;BME280_temperature;BME280_humidity;BME280_pressure;Samples;Min_cycle;Max_cycle;Signal;HPM_P1;HPM_P2
2023/02/07 00:01:04;;;;;;;18.40;11.95;;;-2.70;99.90;;;;;;4998187;28;20085;-62
2023/02/07 00:03:30;;;;;;;16.65;11.10;;;-2.80;99.90;;;;;;4995472;28;20485;-62
2023/02/07 00:06:07;;;;;;;18.85;11.73;;;-2.70;99.90;;;;;;5002416;28;20083;-62
2023/02/07 00:08:33;;;;;;;18.48;12.23;;;-2.80;99.90;;;;;;4999365;28;20026;-62
2023/02/07 00:11:03;;;;;;;16.33;10.82;;;-2.80;99.90;;;;;;4993865;28;20037;-62
2023/02/07 00:13:29;;;;;;;18.60;11.23;;;-2.80;99.90;;;;;;5001494;28;20512;-62
2023/02/07 00:15:54;;;;;;;16.92;12.00;;;-2.80;99.90;;;;;;4997670;28;20034;-62
2023/02/07 00:18:20;;;;;;;15.15;10.77;;;-2.90;99.90;;;;;;5002107;28;20041;-62
2023/02/07 00:20:55;;;;;;;18.85;12.95;;;-2.90;99.90;;;;;;5004108;28;20031;-62
2023/02/07 00:23:21;;;;;;;18.50;11.55;;;-2.90;99.90;;;;;;5007525;28;20028;-62
2023/02/07 00:25:46;;;;;;;15.75;10.98;;;-2.90;99.90;;;;;;4999831;28;20038;-62
2023/02/07 00:28:12;;;;;;;16.30;11.35;;;-2.90;99.90;;;;;;4998426;28;20027;-62
2023/02/07 00:30:37;;;;;;;12.38;10.13;;;-3.00;99.90;;;;;;4996100;28;20371;-62
2023/02/07 00:33:03;;;;;;;16.17;11.27;;;-3.00;99.90;;;;;;4995856;28;20109;-62
2023/02/07 00:35:28;;;;;;;17.10;11.25;;;-3.00;99.90;;;;;;5006268;28;20046;-61
2023/02/07 00:37:54;;;;;;;17.70;11.00;;;-3.00;99.90;;;;;;4999496;28;20037;-62
2023/02/07 00:40:19;;;;;;;15.40;9.98;;;-3.00;99.90;;;;;;5000820;28;20027;-63
2023/02/07 00:42:45;;;;;;;15.10;10.85;;;-3.00;99.90;;;;;;5002690;28;20033;-62
2023/02/07 00:45:10;;;;;;;15.77;11.27;;;-3.00;99.90;;;;;;4999408;28;20026;-62
2023/02/07 00:47:36;;;;;;;17.05;10.52;;;-3.10;99.90;;;;;;4995675;28;20026;-62
2023/02/07 00:50:02;;;;;;;16.42;11.15;;;-3.00;99.90;;;;;;4997900;28;20077;-62
2023/02/07 00:52:27;;;;;;;18.45;10.70;;;-3.10;99.90;;;;;;5003808;28;20029;-62
2023/02/07 00:54:53;;;;;;;17.63;10.88;;;-3.10;99.90;;;;;;5003430;28;20019;-62
2023/02/07 00:57:18;;;;;;;17.90;11.63;;;-3.10;99.90;;;;;;5006655;28;20558;-62
2023/02/07 00:59:44;;;;;;;14.50;10.70;;;-3.10;99.90;;;;;;5007391;28;20041;-62
2023/02/07 01:02:09;;;;;;;14.88;11.15;;;-3.10;99.90;;;;;;4998099;28;20022;-60
2023/02/07 01:04:35;;;;;;;14.88;11.05;;;-3.20;99.90;;;;;;5005497;28;20056;-62
2023/02/07 01:07:01;;;;;;;18.23;11.15;;;-3.20;99.90;;;;;;5001236;28;20025;-61
2023/02/07 01:09:26;;;;;;;13.05;9.85;;;-3.20;99.90;;;;;;4997905;28;20112;-62
2023/02/07 01:11:52;;;;;;;15.63;10.38;;;-3.20;99.90;;;;;;4995568;28;20022;-62
2023/02/07 01:14:17;;;;;;;15.90;10.38;;;-3.20;99.90;;;;;;4985078;28;20100;-62
2023/02/07 01:16:43;;;;;;;18.70;10.93;;;-3.20;99.90;;;;;;4990325;28;20022;-62
2023/02/07 01:19:10;;;;;;;16.30;9.90;;;-3.20;99.90;;;;;;5000031;28;20117;-62
2023/02/07 01:21:36;;;;;;;15.07;11.60;;;-3.30;99.90;;;;;;4995644;28;20062;-62
2023/02/07 01:24:01;;;;;;;17.55;11.55;;;-3.30;99.90;;;;;;5005035;28;20064;-62
2023/02/07 01:26:27;;;;;;;15.02;9.98;;;-3.30;99.90;;;;;;5001319;28;20033;-61
2023/02/07 01:28:54;;;;;;;14.88;10.48;;;-3.30;99.90;;;;;;4999776;28;20022;-62
2023/02/07 01:31:21;;;;;;;16.20;10.55;;;-3.30;99.90;;;;;;4997455;28;20373;-61
2023/02/07 01:33:46;;;;;;;14.15;9.70;;;-3.30;99.90;;;;;;4998128;28;20448;-62
2023/02/07 01:36:14;;;;;;;18.40;10.73;;;-3.30;99.90;;;;;;4997420;28;20065;-62
2023/02/07 01:38:40;;;;;;;16.92;10.23;;;-3.40;99.90;;;;;;4996303;28;20507;-62
2023/02/07 01:41:06;;;;;;;15.18;10.15;;;-3.40;99.90;;;;;;4998658;28;20521;-62
2023/02/07 01:43:32;;;;;;;15.30;10.30;;;-3.40;99.90;;;;;;5000923;28;20265;-61
2023/02/07 01:45:58;;;;;;;18.13;11.02;;;-3.40;99.90;;;;;;4997714;28;20048;-62
2023/02/07 01:48:34;;;;;;;17.77;11.63;;;-3.50;99.90;;;;;;5001604;28;20026;-62
2023/02/07 01:51:03;;;;;;;;;;;-3.40;99.90;;;;;;4987282;28;20089;-60
2023/02/07 01:53:31;;;;;;;12.35;9.25;;;-3.50;99.90;;;;;;4998883;28;20306;-61
2023/02/07 01:56:01;;;;;;;15.55;10.85;;;-3.50;99.90;;;;;;4998856;28;20103;-62
2023/02/07 01:58:27;;;;;;;16.52;10.77;;;-3.50;99.90;;;;;;4996685;28;20512;-62
2023/02/07 02:00:54;;;;;;;18.73;11.02;;;-3.40;99.90;;;;;;4995795;28;20030;-62
2023/02/07 02:03:19;;;;;;;12.30;9.80;;;-3.50;99.90;;;;;;4994582;28;20460;-62
2023/02/07 02:05:48;;;;;;;21.23;11.00;;;-3.50;99.90;;;;;;5000944;28;20057;-62
2023/02/07 02:08:13;;;;;;;18.65;10.07;;;-3.50;99.90;;;;;;4999136;28;20028;-62
2023/02/07 02:11:01;;;;;;;17.00;10.35;;;-3.50;99.90;;;;;;4997617;28;20018;-62
2023/02/07 02:13:42;;;;;;;14.98;9.98;;;-3.50;99.90;;;;;;4994719;28;20069;-62
2023/02/07 02:16:50;;;;;;;18.95;11.02;;;-3.60;99.90;;;;;;4991925;28;20034;-62
2023/02/07 02:19:27;;;;;;;14.35;9.98;;;-3.60;99.90;;;;;;4987091;28;20408;-62
2023/02/07 02:22:23;;;;;;;17.70;10.45;;;-3.60;99.90;;;;;;4991469;28;20120;-62
2023/02/07 02:25:01;;;;;;;18.43;10.63;;;-3.60;99.90;;;;;;5001092;28;20029;-62
2023/02/07 02:27:54;;;;;;;13.85;10.13;;;-3.60;99.90;;;;;;4998442;28;20404;-62
2023/02/07 02:30:44;;;;;;;14.40;10.27;;;-3.60;99.90;;;;;;4999818;28;20045;-61
2023/02/07 02:33:19;;;;;;;16.98;11.18;;;-3.60;99.90;;;;;;4997333;28;20022;-62
2023/02/07 02:35:49;;;;;;;13.50;10.63;;;-3.60;99.90;;;;;;4997433;28;20949;-62
2023/02/07 02:38:18;;;;;;;15.45;11.00;;;-3.60;99.90;;;;;;5004081;28;20026;-61
2023/02/07 02:40:48;;;;;;;18.42;11.88;;;-3.70;99.90;;;;;;4996864;28;20148;-62
2023/02/07 02:43:21;;;;;;;21.38;11.80;;;-3.60;99.90;;;;;;4997867;28;20027;-61
2023/02/07 02:45:56;;;;;;;17.60;11.82;;;-3.70;99.90;;;;;;5003169;28;20457;-62
2023/02/07 02:48:22;;;;;;;17.70;11.48;;;-3.70;99.90;;;;;;4992750;28;20477;-62
2023/02/07 02:50:48;;;;;;;17.48;12.43;;;-3.70;99.90;;;;;;4990883;28;20026;-62
2023/02/07 02:53:15;;;;;;;19.20;10.35;;;-3.70;99.90;;;;;;4997454;28;20030;-62
2023/02/07 02:56:00;;;;;;;16.88;11.15;;;-3.70;99.90;;;;;;4998274;28;20085;-62
2023/02/07 02:58:34;;;;;;;16.00;10.15;;;-3.70;99.90;;;;;;4990090;28;20030;-62
2023/02/07 03:01:27;;;;;;;15.77;10.27;;;-3.70;99.90;;;;;;4998160;28;20026;-62
2023/02/07 03:04:08;;;;;;;14.80;10.30;;;-3.80;99.90;;;;;;4999262;28;20029;-62
2023/02/07 03:06:59;;;;;;;18.40;10.13;;;-3.80;99.90;;;;;;4993497;28;20045;-62
2023/02/07 03:09:39;;;;;;;13.98;9.90;;;-3.80;99.90;;;;;;5000986;28;20049;-62
2023/02/07 03:12:23;;;;;;;13.93;10.13;;;-3.80;99.90;;;;;;4989669;28;20547;-62
2023/02/07 03:15:06;;;;;;;15.15;11.20;;;-3.90;99.90;;;;;;4997669;28;20065;-61
2023/02/07 03:17:54;;;;;;;14.63;10.30;;;-3.80;99.90;;;;;;5002263;28;20539;-62
2023/02/07 03:20:29;;;;;;;15.32;10.20;;;-3.90;99.90;;;;;;4981927;28;20046;-61
2023/02/07 03:22:57;;;;;;;15.20;10.35;;;-3.90;99.90;;;;;;5000180;28;20022;-60
2023/02/07 03:25:25;;;;;;;14.63;10.02;;;-3.90;99.90;;;;;;5003776;28;20042;-60
2023/02/07 03:27:53;;;;;;;15.85;9.63;;;-3.90;99.90;;;;;;4987193;28;20438;-61
2023/02/07 03:30:22;;;;;;;16.85;9.60;;;-3.90;99.90;;;;;;4998897;28;20031;-62
2023/02/07 03:32:55;;;;;;;14.80;9.77;;;-3.90;99.90;;;;;;4994654;28;20102;-61
2023/02/07 03:35:30;;;;;;;15.73;10.27;;;-3.90;99.90;;;;;;5003153;28;20039;-61
2023/02/07 03:37:58;;;;;;;12.30;9.35;;;-4.00;99.90;;;;;;4993496;28;20072;-61
2023/02/07 03:40:28;;;;;;;13.60;10.60;;;-4.00;99.90;;;;;;5006894;28;20045;-61
2023/02/07 03:43:07;;;;;;;14.35;9.95;;;-4.00;99.90;;;;;;4994507;28;20578;-59
2023/02/07 03:45:33;;;;;;;12.90;9.43;;;-4.00;99.90;;;;;;5006394;28;20034;-62
2023/02/07 03:47:59;;;;;;;17.58;10.32;;;-4.00;99.90;;;;;;4999107;28;20085;-62
2023/02/07 03:50:24;;;;;;;12.45;9.63;;;-4.00;99.90;;;;;;5005742;28;20384;-61
2023/02/07 03:52:50;;;;;;;12.77;9.90;;;-4.00;99.90;;;;;;5006835;28;20104;-61
2023/02/07 03:55:16;;;;;;;12.80;9.90;;;-4.00;99.90;;;;;;4998966;28;20481;-61
2023/02/07 03:57:41;;;;;;;12.30;9.52;;;-4.00;99.90;;;;;;5005278;28;20549;-61
2023/02/07 04:00:08;;;;;;;15.75;10.05;;;-4.00;99.90;;;;;;4999943;28;20101;-61
2023/02/07 04:02:33;;;;;;;14.43;9.57;;;-4.10;99.90;;;;;;5006057;28;20031;-61
2023/02/07 04:04:59;;;;;;;13.63;9.50;;;-4.10;99.90;;;;;;5005114;28;20484;-62
2023/02/07 04:07:25;;;;;;;15.73;10.63;;;-4.10;99.90;;;;;;4998889;28;20026;-61
2023/02/07 04:09:50;;;;;;;15.13;9.65;;;-4.10;99.90;;;;;;5006684;28;20033;-61
2023/02/07 04:12:16;;;;;;;16.70;10.30;;;-4.10;99.90;;;;;;5000220;28;20034;-61
2023/02/07 04:14:41;;;;;;;14.82;10.70;;;-4.10;99.90;;;;;;5007627;28;20041;-61
2023/02/07 04:17:07;;;;;;;16.15;10.23;;;-4.10;99.90;;;;;;5002064;28;20117;-62
2023/02/07 04:19:32;;;;;;;14.02;9.13;;;-4.20;99.90;;;;;;5002070;28;20074;-61
2023/02/07 04:21:58;;;;;;;11.15;9.13;;;-4.20;99.90;;;;;;5003993;28;20170;-61
2023/02/07 04:24:24;;;;;;;19.23;10.68;;;-4.20;99.90;;;;;;4999187;28;20030;-61
2023/02/07 04:26:49;;;;;;;18.63;9.73;;;-4.20;99.90;;;;;;5001796;28;20026;-61
2023/02/07 04:29:15;;;;;;;19.98;10.98;;;-4.20;99.90;;;;;;4999879;28;20026;-62
2023/02/07 04:31:41;;;;;;;18.98;11.18;;;-4.20;99.90;;;;;;5001472;28;20022;-62
2023/02/07 04:34:08;;;;;;;14.13;10.35;;;-4.20;99.90;;;;;;4999728;28;20018;-61
2023/02/07 04:36:34;;;;;;;12.40;8.65;;;-4.20;99.90;;;;;;4986989;28;20449;-61
2023/02/07 04:39:00;;;;;;;14.25;9.73;;;-4.20;99.90;;;;;;4999262;28;20030;-61
2023/02/07 04:41:26;;;;;;;15.43;9.32;;;-4.20;99.90;;;;;;4999606;28;20046;-61
2023/02/07 04:43:51;;;;;;;14.18;9.25;;;-4.30;99.90;;;;;;4999167;28;20030;-62
2023/02/07 04:46:17;;;;;;;12.70;9.43;;;-4.30;99.90;;;;;;4998859;28;20437;-61
2023/02/07 04:48:43;;;;;;;15.77;10.18;;;-4.30;99.90;;;;;;5000318;28;20031;-61
2023/02/07 04:51:08;;;;;;;16.27;10.02;;;-4.30;99.90;;;;;;5001084;28;20034;-61
2023/02/07 04:53:35;;;;;;;12.68;9.50;;;-4.30;99.90;;;;;;4997370;28;20142;-61
2023/02/07 04:56:01;;;;;;;14.65;10.27;;;-4.30;99.90;;;;;;5000337;28;20101;-61
2023/02/07 04:58:26;;;;;;;14.45;10.30;;;-4.40;99.90;;;;;;4999596;28;20034;-61
2023/02/07 05:00:53;;;;;;;11.77;8.70;;;-4.40;99.90;;;;;;5005215;28;20030;-61
2023/02/07 05:03:18;;;;;;;12.45;9.93;;;-4.40;99.90;;;;;;4998622;28;20034;-60
2023/02/07 05:05:44;;;;;;;14.32;9.00;;;-4.50;99.90;;;;;;4997397;28;20381;-62
2023/02/07 05:08:11;;;;;;;13.43;10.02;;;-4.50;99.90;;;;;;4999399;28;20042;-62
2023/02/07 05:10:38;;;;;;;13.50;9.73;;;-4.50;99.90;;;;;;4999058;28;20418;-61
2023/02/07 05:13:04;;;;;;;15.15;10.60;;;-4.50;99.90;;;;;;4999790;28;20030;-61
2023/02/07 05:15:30;;;;;;;19.05;10.32;;;-4.50;99.90;;;;;;4994433;28;20113;-61
2023/02/07 05:17:56;;;;;;;17.65;11.05;;;-4.50;99.90;;;;;;4997697;28;20405;-61
2023/02/07 05:20:23;;;;;;;17.15;10.98;;;-4.50;99.90;;;;;;4998752;28;20122;-60
2023/02/07 05:22:49;;;;;;;12.85;9.88;;;-4.50;99.90;;;;;;4994753;28;20040;-60
2023/02/07 05:25:15;;;;;;;16.25;10.65;;;-4.60;99.90;;;;;;5001123;28;20129;-59
2023/02/07 05:27:40;;;;;;;13.63;9.77;;;-4.50;99.90;;;;;;4992409;28;20038;-60
2023/02/07 05:30:07;;;;;;;13.98;9.77;;;-4.60;99.90;;;;;;4999505;28;20035;-59
2023/02/07 05:35:16;;;;;;;14.90;10.00;;;-4.60;99.90;;;;;;5002766;28;20551;-59
2023/02/07 05:37:42;;;;;;;13.68;10.20;;;-4.60;99.90;;;;;;4992866;28;20022;-60
2023/02/07 05:40:08;;;;;;;13.38;9.23;;;-4.60;99.90;;;;;;5002879;28;20570;-59
2023/02/07 05:42:34;;;;;;;14.77;10.68;;;-4.70;99.90;;;;;;5000979;28;20085;-59
2023/02/07 05:44:59;;;;;;;14.88;10.85;;;-4.60;99.90;;;;;;5000091;28;20030;-60
2023/02/07 05:47:25;;;;;;;15.80;10.43;;;-4.70;99.90;;;;;;5001839;28;20484;-60
2023/02/07 05:49:51;;;;;;;18.20;10.52;;;-4.60;99.90;;;;;;4999390;28;20057;-60
2023/02/07 05:52:16;;;;;;;13.45;9.80;;;-4.70;99.90;;;;;;5000957;28;20029;-60
2023/02/07 05:54:42;;;;;;;15.85;11.35;;;-4.60;99.90;;;;;;5000057;28;20034;-60
2023/02/07 05:57:07;;;;;;;21.30;12.77;;;-4.70;99.90;;;;;;5002001;28;20036;-59
2023/02/07 05:59:33;;;;;;;25.15;14.57;;;-4.70;99.90;;;;;;5000443;28;20025;-60
2023/02/07 06:01:59;;;;;;;24.35;13.82;;;-4.70;99.90;;;;;;5001312;28;20092;-60
2023/02/07 06:04:24;;;;;;;18.05;11.43;;;-4.70;99.90;;;;;;5000845;28;20078;-60
2023/02/07 06:06:50;;;;;;;20.02;10.60;;;-4.80;99.90;;;;;;4994936;28;20525;-60
2023/02/07 06:09:16;;;;;;;17.98;11.32;;;-4.80;99.90;;;;;;4997360;28;20026;-61
2023/02/07 06:11:41;;;;;;;16.88;10.82;;;-4.90;99.90;;;;;;4996042;28;20439;-61
2023/02/07 06:14:07;;;;;;;17.90;11.50;;;-4.90;99.90;;;;;;4993426;28;20045;-61
2023/02/07 06:16:32;;;;;;;16.63;11.30;;;-4.90;99.90;;;;;;4990792;28;20034;-61
2023/02/07 06:18:58;;;;;;;12.57;9.80;;;-4.90;99.90;;;;;;5001660;28;20041;-61
2023/02/07 06:21:23;;;;;;;17.00;10.70;;;-4.90;99.90;;;;;;4991421;28;20092;-61
2023/02/07 06:23:50;;;;;;;15.65;10.73;;;-4.90;99.90;;;;;;4998308;28;20045;-61
2023/02/07 06:26:16;;;;;;;16.60;10.60;;;-4.90;99.90;;;;;;5000578;28;20033;-62
2023/02/07 06:28:42;;;;;;;16.98;10.95;;;-4.90;99.90;;;;;;4998216;28;20058;-61
2023/02/07 06:31:08;;;;;;;16.73;10.27;;;-4.90;99.90;;;;;;5000369;28;20072;-61
2023/02/07 06:33:33;;;;;;;16.92;11.68;;;-5.00;99.90;;;;;;4998654;28;20030;-61
2023/02/07 06:35:59;;;;;;;15.23;10.65;;;-5.00;99.90;;;;;;4990764;28;20030;-60
2023/02/07 06:38:24;;;;;;;15.48;11.10;;;-5.00;99.90;;;;;;4993864;28;20116;-60
2023/02/07 06:40:50;;;;;;;14.43;10.15;;;-5.00;99.90;;;;;;4992498;28;20041;-60
2023/02/07 06:43:15;;;;;;;17.13;10.90;;;-5.00;99.90;;;;;;4996066;28;20034;-60
2023/02/07 06:45:41;;;;;;;14.90;11.18;;;-5.00;99.90;;;;;;4997910;28;20523;-60
2023/02/07 06:48:08;;;;;;;18.77;11.60;;;-5.00;99.90;;;;;;4997849;28;20038;-60
2023/02/07 06:50:33;;;;;;;17.15;11.00;;;-5.00;99.90;;;;;;5002706;28;20038;-61
2023/02/07 06:53:00;;;;;;;15.65;11.15;;;-5.00;99.90;;;;;;4991635;28;20026;-60
2023/02/07 06:55:37;;;;;;;19.02;11.38;;;-5.00;99.90;;;;;;5006800;28;20033;-60
2023/02/07 06:58:04;;;;;;;15.45;12.13;;;-5.00;99.90;;;;;;4993706;28;20084;-61
2023/02/07 07:00:30;;;;;;;19.90;12.23;;;-5.00;99.90;;;;;;5005934;28;20088;-60
2023/02/07 07:02:55;;;;;;;21.17;12.55;;;-5.00;99.90;;;;;;4956924;28;1049129;-59
2023/02/07 07:05:21;;;;;;;14.95;10.95;;;-5.10;99.90;;;;;;4994171;28;20116;-60
2023/02/07 07:07:47;;;;;;;16.95;11.45;;;-5.10;99.90;;;;;;5003216;28;20026;-58
2023/02/07 07:10:14;;;;;;;14.85;10.50;;;-5.10;99.90;;;;;;5000610;28;20420;-59
2023/02/07 07:12:39;;;;;;;16.05;10.30;;;-5.10;99.90;;;;;;5007569;28;20018;-60
2023/02/07 07:15:05;;;;;;;15.73;11.18;;;-5.10;99.90;;;;;;4994491;28;20378;-60
2023/02/07 07:17:31;;;;;;;16.75;9.90;;;-5.10;99.90;;;;;;5001244;28;20484;-57
2023/02/07 07:19:57;;;;;;;15.85;10.63;;;-5.10;99.90;;;;;;5000749;28;20034;-59
2023/02/07 07:22:24;;;;;;;23.05;12.52;;;-5.00;99.90;;;;;;4995610;28;20420;-59
2023/02/07 07:24:50;;;;;;;17.25;11.20;;;-5.00;99.90;;;;;;5007107;28;20459;-59
2023/02/07 07:27:15;;;;;;;16.80;10.85;;;-5.00;99.90;;;;;;4997211;28;20030;-59
2023/02/07 07:29:41;;;;;;;15.32;12.20;;;-5.00;99.90;;;;;;5007225;28;20026;-61
2023/02/07 07:32:07;;;;;;;16.38;10.82;;;-5.00;99.90;;;;;;4999551;28;20030;-58
2023/02/07 07:34:32;;;;;;;16.25;11.23;;;-5.00;99.90;;;;;;5008422;28;20397;-60
2023/02/07 07:36:58;;;;;;;20.15;12.10;;;-5.00;99.90;;;;;;4990835;28;20022;-59
2023/02/07 07:39:25;;;;;;;16.33;11.52;;;-5.00;99.90;;;;;;5002562;28;20034;-60
2023/02/07 07:41:50;;;;;;;21.48;12.23;;;-4.90;99.90;;;;;;5003579;28;20022;-60
2023/02/07 07:44:16;;;;;;;17.15;11.50;;;-4.90;99.90;;;;;;5003520;28;20477;-59
2023/02/07 07:46:41;;;;;;;17.77;12.27;;;-4.80;99.90;;;;;;5003225;28;20035;-56
2023/02/07 07:49:07;;;;;;;18.90;12.15;;;-4.80;99.90;;;;;;5003204;28;20546;-58
2023/02/07 07:51:33;;;;;;;18.80;12.27;;;-4.80;99.90;;;;;;5001895;28;20202;-57
2023/02/07 07:54:00;;;;;;;17.73;11.57;;;-4.80;99.90;;;;;;5000053;28;20492;-57
2023/02/07 07:56:28;;;;;;;16.20;12.32;;;-4.80;99.90;;;;;;5000042;28;20030;-60
2023/02/07 07:58:54;;;;;;;18.90;13.43;;;-4.70;99.90;;;;;;5002339;28;20416;-60
2023/02/07 08:01:20;;;;;;;19.25;13.40;;;-4.70;99.90;;;;;;5000272;28;20030;-60
2023/02/07 08:03:45;;;;;;;19.35;13.38;;;-4.70;99.90;;;;;;5001764;28;20508;-58
2023/02/07 08:06:11;;;;;;;21.35;13.25;;;-4.60;99.90;;;;;;4995859;28;20041;-57
2023/02/07 08:08:36;;;;;;;19.88;13.15;;;-4.60;99.90;;;;;;5001916;28;20097;-58
2023/02/07 08:11:08;;;;;;;22.30;14.40;;;-4.60;99.90;;;;;;5003087;28;20504;-58
2023/02/07 08:13:34;;;;;;;18.23;14.68;;;-4.60;99.90;;;;;;5001940;28;20078;-60
2023/02/07 08:16:01;;;;;;;20.23;14.13;;;-4.50;99.90;;;;;;5003533;28;20029;-59
2023/02/07 08:18:27;;;;;;;20.98;14.77;;;-4.50;99.90;;;;;;5002200;28;20026;-58
2023/02/07 08:20:52;;;;;;;18.85;14.30;;;-4.50;99.90;;;;;;5003115;28;20507;-60
2023/02/07 08:23:18;;;;;;;22.70;15.27;;;-4.40;99.90;;;;;;5000770;28;20503;-56
2023/02/07 08:25:45;;;;;;;18.45;14.10;;;-4.40;99.90;;;;;;5002805;28;20510;-59
2023/02/07 08:28:12;;;;;;;19.45;13.85;;;-4.30;99.90;;;;;;5002972;28;20046;-59
2023/02/07 08:30:37;;;;;;;17.58;12.48;;;-4.30;99.90;;;;;;5001262;28;20038;-59
2023/02/07 08:33:03;;;;;;;18.88;12.63;;;-4.20;99.90;;;;;;5000664;28;20018;-59
2023/02/07 08:35:28;;;;;;;23.27;13.82;;;-4.10;99.90;;;;;;4995360;28;20077;-59
2023/02/07 08:37:57;;;;;;;20.75;13.82;;;-4.00;99.90;;;;;;5000002;28;20420;-60
2023/02/07 08:40:23;;;;;;;25.30;13.52;;;-4.00;99.90;;;;;;5001101;28;20032;-60
2023/02/07 08:42:49;;;;;;;18.75;13.20;;;-3.90;99.90;;;;;;5003048;28;20514;-60
2023/02/07 08:45:16;;;;;;;23.55;14.43;;;-3.90;99.90;;;;;;5002700;28;20079;-60
2023/02/07 08:47:43;;;;;;;22.33;13.98;;;-3.80;99.90;;;;;;5000330;28;20022;-60
2023/02/07 08:50:09;;;;;;;20.75;13.73;;;-3.70;99.90;;;;;;5002784;28;20040;-60
2023/02/07 08:52:35;;;;;;;21.13;13.93;;;-3.60;99.90;;;;;;5001137;28;20052;-59
2023/02/07 08:55:01;;;;;;;21.70;15.02;;;-3.50;99.90;;;;;;5003006;28;20074;-60
2023/02/07 08:57:26;;;;;;;23.80;15.27;;;-3.40;99.90;;;;;;5002733;28;20026;-59
2023/02/07 08:59:52;;;;;;;21.52;14.82;;;-3.30;99.90;;;;;;5002481;28;20026;-58
2023/02/07 09:02:18;;;;;;;25.35;14.98;;;-3.20;99.90;;;;;;5002406;28;20022;-58
2023/02/07 09:04:43;;;;;;;23.67;14.73;;;-3.10;99.90;;;;;;4999821;28;20065;-58
2023/02/07 09:07:10;;;;;;;25.55;16.45;;;-2.90;99.90;;;;;;5001478;28;20026;-60
2023/02/07 09:09:36;;;;;;;26.00;17.67;;;-2.80;99.90;;;;;;5000759;28;20025;-60
2023/02/07 09:12:02;;;;;;;28.83;16.20;;;-2.60;99.90;;;;;;4995594;28;20022;-60
2023/02/07 09:14:27;;;;;;;27.13;15.95;;;-2.50;99.90;;;;;;5001992;28;20052;-60
2023/02/07 09:16:53;;;;;;;29.05;17.00;;;-2.30;99.90;;;;;;5000392;28;20459;-60
2023/02/07 09:19:18;;;;;;;25.75;16.58;;;-2.20;99.90;;;;;;4993062;28;20026;-59
2023/02/07 09:21:44;;;;;;;25.42;16.85;;;-2.10;99.90;;;;;;5001120;28;20027;-59
2023/02/07 09:24:10;;;;;;;26.17;17.95;;;-2.00;99.90;;;;;;4997257;28;20033;-60
2023/02/07 09:26:37;;;;;;;29.50;17.65;;;-1.90;99.90;;;;;;5000427;28;20109;-60
2023/02/07 09:29:04;;;;;;;28.52;17.70;;;-1.80;99.90;;;;;;4991103;28;20021;-58
2023/02/07 09:31:30;;;;;;;27.42;17.42;;;-1.70;99.90;;;;;;5003205;28;20095;-58
2023/02/07 09:33:55;;;;;;;26.73;18.98;;;-1.60;99.90;;;;;;4993404;28;20465;-58
2023/02/07 09:36:27;;;;;;;27.65;18.83;;;-1.50;99.90;;;;;;4989425;28;20038;-60
2023/02/07 09:38:54;;;;;;;26.58;17.83;;;-1.40;99.90;;;;;;4994342;28;20026;-60
2023/02/07 09:41:57;;;;;;;26.85;19.10;;;-1.30;99.90;;;;;;4990711;28;20381;-60
2023/02/07 09:44:45;;;;;;;28.20;19.30;;;-1.20;99.90;;;;;;4969418;28;20394;-61
2023/02/07 09:47:19;;;;;;;27.13;18.35;;;-1.00;99.90;;;;;;4990101;28;20026;-60
2023/02/07 09:50:02;;;;;;;29.70;18.13;;;-0.90;99.90;;;;;;4995829;28;20068;-61
2023/02/07 09:53:03;;;;;;;29.48;19.35;;;-0.90;99.90;;;;;;5004779;28;20530;-60
2023/02/07 09:55:45;;;;;;;32.75;19.67;;;-0.70;99.90;;;;;;4958978;28;20049;-61
2023/02/07 09:58:19;;;;;;;31.40;18.58;;;-0.70;99.90;;;;;;4999577;28;20027;-61
2023/02/07 10:00:52;;;;;;;30.25;20.52;;;-0.50;99.90;;;;;;5008678;28;20029;-60
2023/02/07 10:03:21;;;;;;;31.40;19.48;;;-0.50;99.90;;;;;;4999245;28;20100;-60
2023/02/07 10:06:03;;;;;;;28.65;19.35;;;-0.40;99.90;;;;;;5001372;28;20057;-59
2023/02/07 10:08:28;;;;;;;30.85;18.02;;;-0.30;99.90;;;;;;4999159;28;20366;-56
2023/02/07 10:11:33;;;;;;;31.88;20.55;;;-0.30;99.90;;;;;;5001416;28;20049;-55
2023/02/07 10:14:10;;;;;;;29.52;19.83;;;-0.10;99.90;;;;;;4992173;28;20022;-61
2023/02/07 10:17:21;;;;;;;31.75;20.60;;;-0.10;99.90;;;;;;5000872;28;20030;-59
2023/02/07 10:20:28;;;;;;;25.20;19.30;;;0.00;99.90;;;;;;4998203;28;20027;-60
2023/02/07 10:23:28;;;;;;;27.92;18.85;;;0.10;99.90;;;;;;4986003;28;20018;-60
2023/02/07 10:25:56;;;;;;;29.33;19.67;;;0.10;99.90;;;;;;5001323;28;20030;-61
2023/02/07 10:28:40;;;;;;;27.33;19.25;;;0.20;99.90;;;;;;4998631;28;20473;-61
2023/02/07 10:31:12;;;;;;;22.85;16.92;;;0.30;99.90;;;;;;4993808;28;20026;-61
2023/02/07 10:33:42;;;;;;;25.48;16.95;;;0.40;99.90;;;;;;5000504;28;20183;-61
2023/02/07 10:36:14;;;;;;;23.35;17.10;;;0.40;99.90;;;;;;4991356;28;20513;-61
2023/02/07 10:38:47;;;;;;;26.98;18.50;;;0.50;99.90;;;;;;5003049;28;20037;-60
2023/02/07 10:41:23;;;;;;;27.33;17.33;;;0.50;99.90;;;;;;4997890;28;20381;-61
2023/02/07 10:43:50;;;;;;;26.48;16.67;;;0.60;99.90;;;;;;4998403;28;20023;-61
2023/02/07 10:46:19;;;;;;;27.25;17.70;;;0.60;99.90;;;;;;4997467;28;20033;-61
2023/02/07 10:48:45;;;;;;;23.48;16.45;;;0.70;99.90;;;;;;5000459;28;20531;-62
2023/02/07 10:51:30;;;;;;;23.63;15.77;;;0.70;99.90;;;;;;4999131;28;20452;-62
2023/02/07 10:54:07;;;;;;;20.17;14.40;;;0.80;99.90;;;;;;4989921;28;20374;-62
2023/02/07 10:56:42;;;;;;;19.85;14.82;;;0.80;99.90;;;;;;4995884;28;20038;-62
2023/02/07 10:59:44;;;;;;;23.42;15.50;;;0.90;99.90;;;;;;4996303;28;20487;-61
2023/02/07 11:02:30;;;;;;;20.73;14.65;;;0.90;99.90;;;;;;5002314;28;20104;-61
2023/02/07 11:04:58;;;;;;;22.13;14.25;;;1.00;99.90;;;;;;4996086;28;20113;-61
2023/02/07 11:07:24;;;;;;;19.05;14.63;;;1.00;99.90;;;;;;5003018;28;20526;-61
2023/02/07 11:09:49;;;;;;;21.42;15.07;;;1.00;99.90;;;;;;4997013;28;20492;-62
2023/02/07 11:12:20;;;;;;;23.00;14.23;;;1.10;99.90;;;;;;5002681;28;20083;-62
2023/02/07 11:15:15;;;;;;;20.98;14.88;;;1.10;99.90;;;;;;4996886;28;20722;-62
2023/02/07 11:17:53;;;;;;;20.75;14.60;;;1.10;99.90;;;;;;4998726;28;20035;-62
2023/02/07 11:20:37;;;;;;;22.58;14.55;;;1.10;99.90;;;;;;4998307;28;20065;-62
2023/02/07 11:23:12;;;;;;;19.95;13.65;;;1.10;99.90;;;;;;4983480;28;20101;-62
2023/02/07 11:25:44;;;;;;;20.50;14.85;;;1.10;99.90;;;;;;4997456;28;20081;-62
2023/02/07 11:28:30;;;;;;;18.50;13.32;;;1.10;99.90;;;;;;4996418;28;20027;-62
2023/02/07 11:31:07;;;;;;;16.83;12.50;;;1.10;99.90;;;;;;4996237;28;20025;-62
2023/02/07 11:33:35;;;;;;;16.48;12.85;;;1.10;99.90;;;;;;4993706;28;20073;-61
2023/02/07 11:36:18;;;;;;;18.45;12.27;;;1.10;99.90;;;;;;4996195;28;20489;-62
2023/02/07 11:38:49;;;;;;;23.08;13.32;;;1.10;99.90;;;;;;5002619;28;20034;-62
2023/02/07 11:41:24;;;;;;;17.35;12.13;;;1.10;99.90;;;;;;5001452;28;20447;-61
2023/02/07 11:43:56;;;;;;;18.67;12.90;;;1.20;99.90;;;;;;5005642;28;20113;-61
2023/02/07 11:46:33;;;;;;;21.20;13.80;;;1.20;99.90;;;;;;5000919;28;20023;-61
2023/02/07 11:48:59;;;;;;;19.85;14.18;;;1.20;99.90;;;;;;4990327;28;20408;-61
2023/02/07 11:51:26;;;;;;;18.90;13.25;;;1.20;99.90;;;;;;5001276;28;20023;-61
2023/02/07 11:53:58;;;;;;;19.60;13.82;;;1.20;99.90;;;;;;5003987;28;20018;-61
2023/02/07 11:56:30;;;;;;;22.20;15.15;;;1.20;99.90;;;;;;5002211;28;20030;-61
2023/02/07 11:58:57;;;;;;;20.63;13.73;;;1.20;99.90;;;;;;5003923;28;20051;-62
2023/02/07 12:01:32;;;;;;;20.65;14.32;;;1.30;99.90;;;;;;5003397;28;20057;-61
2023/02/07 12:04:02;;;;;;;18.52;13.63;;;1.20;99.90;;;;;;4998901;28;20084;-62
2023/02/07 12:06:37;;;;;;;21.80;14.05;;;1.30;99.90;;;;;;5000903;28;20034;-61
2023/02/07 12:09:11;;;;;;;20.37;14.03;;;1.30;99.90;;;;;;5003032;28;20029;-62
2023/02/07 12:11:39;;;;;;;18.85;13.30;;;1.20;99.90;;;;;;5000697;28;20288;-61
2023/02/07 12:14:17;;;;;;;18.13;12.32;;;1.20;99.90;;;;;;5002954;28;20025;-60
2023/02/07 12:16:55;;;;;;;18.10;11.80;;;1.20;99.90;;;;;;4998881;28;20519;-60
2023/02/07 12:19:38;;;;;;;24.60;15.70;;;1.30;99.90;;;;;;5000114;28;20120;-61
2023/02/07 12:22:20;;;;;;;21.95;13.43;;;1.30;99.90;;;;;;4997554;28;20101;-62
2023/02/07 12:25:00;;;;;;;20.75;14.95;;;1.30;99.90;;;;;;5003602;28;20061;-63
2023/02/07 12:27:34;;;;;;;22.17;14.35;;;1.30;99.90;;;;;;4996357;28;20077;-59
2023/02/07 12:30:31;;;;;;;21.77;14.68;;;1.30;99.90;;;;;;4994594;28;20069;-62
2023/02/07 12:33:23;;;;;;;19.17;14.45;;;1.30;99.90;;;;;;4991403;28;20467;-62
2023/02/07 12:36:09;;;;;;;21.08;14.38;;;1.30;99.90;;;;;;4997070;28;20034;-62
2023/02/07 12:38:41;;;;;;;20.13;14.77;;;1.30;99.90;;;;;;5004026;28;20036;-62
2023/02/07 12:41:45;;;;;;;22.30;14.60;;;1.30;99.90;;;;;;4999296;28;20100;-62
2023/02/07 12:44:26;;;;;;;21.65;14.13;;;1.30;99.90;;;;;;4995281;28;20061;-61
2023/02/07 12:47:03;;;;;;;19.45;15.05;;;1.20;99.90;;;;;;4989364;28;20060;-61
2023/02/07 12:50:06;;;;;;;21.52;14.18;;;1.20;99.90;;;;;;5000495;28;20019;-62